Time;durP1;ratioP1;P1;durP2;ratioP2;P2;SDS_P1;SDS_P2;PMS_P1;PMS_P2;Temp;Humidity;BMP_temperature;BMP_pressure;BME280_temperature;BME280_humidity;BME280_pressure;Samples;Min_cycle;Max_cycle;Signal;HPM_P1;HPM_P2
2020/12/06 00:01:04;;;;;;;45.40;22.50;;;-1.30;99.90;;;;;;4205047;28;20379;-73
2020/12/06 00:03:05;;;;;;;41.03;22.38;;;-1.30;99.90;;;;;;4216163;28;20069;-73
2020/12/06 00:05:10;;;;;;;40.30;22.17;;;-1.30;99.90;;;;;;4186510;28;20520;-73
2020/12/06 00:07:11;;;;;;;42.20;21.67;;;-1.30;99.90;;;;;;4213541;28;20016;-73
2020/12/06 00:09:12;;;;;;;42.33;21.73;;;-1.30;99.90;;;;;;4215894;28;20044;-73
2020/12/06 00:11:14;;;;;;;39.88;20.63;;;-1.40;99.90;;;;;;4215642;28;20484;-73
2020/12/06 00:13:15;;;;;;;40.90;22.83;;;-1.40;99.90;;;;;;4215680;28;20024;-73
2020/12/06 00:15:15;;;;;;;41.58;20.50;;;-1.40;99.90;;;;;;4197829;28;20034;-73
2020/12/06 00:17:16;;;;;;;36.53;19.88;;;-1.50;99.90;;;;;;4215707;28;20430;-73
2020/12/06 00:19:17;;;;;;;41.38;22.17;;;-1.50;99.90;;;;;;4215168;28;20073;-73
2020/12/06 00:21:19;;;;;;;42.35;21.08;;;-1.50;99.90;;;;;;4215728;28;20376;-73
2020/12/06 00:23:20;;;;;;;35.20;19.20;;;-1.50;99.90;;;;;;4215669;28;20053;-73
2020/12/06 00:25:21;;;;;;;44.53;21.38;;;-1.50;99.90;;;;;;4215426;28;20159;-73
2020/12/06 00:27:21;;;;;;;39.00;21.48;;;-1.50;99.90;;;;;;4214258;28;20039;-73
2020/12/06 00:29:22;;;;;;;39.05;21.25;;;-1.50;99.90;;;;;;4198347;28;20056;-74
2020/12/06 00:31:22;;;;;;;46.25;24.17;;;-1.60;99.90;;;;;;4213927;28;20477;-73
2020/12/06 00:33:23;;;;;;;44.80;20.80;;;-1.70;99.90;;;;;;4214045;28;20104;-73
2020/12/06 00:35:23;;;;;;;39.92;22.58;;;-1.80;99.90;;;;;;4213805;28;20386;-72
2020/12/06 00:37:24;;;;;;;38.42;20.25;;;-1.80;99.90;;;;;;4208010;28;20111;-73
2020/12/06 00:39:25;;;;;;;44.13;22.95;;;-1.90;99.90;;;;;;4196883;28;20074;-73
2020/12/06 00:41:25;;;;;;;38.20;22.05;;;-1.90;99.90;;;;;;4213416;28;20088;-73
2020/12/06 00:43:26;;;;;;;38.40;20.83;;;-2.00;99.90;;;;;;4190715;28;20063;-73
2020/12/06 00:45:26;;;;;;;41.10;20.50;;;-2.00;99.90;;;;;;4205325;28;20028;-73
2020/12/06 00:47:27;;;;;;;39.38;21.58;;;-2.00;99.90;;;;;;4215301;28;20363;-73
2020/12/06 00:49:28;;;;;;;39.00;19.55;;;-2.00;99.90;;;;;;4215370;28;20029;-73
2020/12/06 00:51:28;;;;;;;37.13;21.88;;;-2.00;99.90;;;;;;4215172;28;20028;-73
2020/12/06 00:53:29;;;;;;;41.53;21.58;;;-2.00;99.90;;;;;;4215279;28;20050;-73
2020/12/06 00:55:30;;;;;;;46.55;22.33;;;-1.90;99.90;;;;;;4190940;28;20129;-73
2020/12/06 00:57:30;;;;;;;41.42;21.63;;;-1.90;99.90;;;;;;4203068;28;20077;-74
2020/12/06 00:59:31;;;;;;;36.00;22.05;;;-1.90;99.90;;;;;;4206432;28;20035;-73
2020/12/06 01:01:32;;;;;;;41.55;22.50;;;-2.00;99.90;;;;;;4208409;28;20040;-73
2020/12/06 01:03:33;;;;;;;43.47;21.67;;;-2.00;99.90;;;;;;4215114;28;20057;-73
2020/12/06 01:05:34;;;;;;;40.22;23.05;;;-2.10;99.90;;;;;;4181666;28;20514;-73
2020/12/06 01:07:38;;;;;;;45.08;22.73;;;-2.10;99.90;;;;;;4202216;28;20394;-73
2020/12/06 01:09:39;;;;;;;45.42;23.35;;;-2.10;99.90;;;;;;4214639;28;20115;-73
2020/12/06 01:11:40;;;;;;;41.63;20.90;;;-2.10;99.90;;;;;;4214854;28;20409;-71
2020/12/06 01:13:41;;;;;;;45.70;22.88;;;-2.00;99.90;;;;;;4214997;28;20052;-73
2020/12/06 01:15:42;;;;;;;45.85;22.85;;;-2.00;99.90;;;;;;4196626;28;20057;-73
2020/12/06 01:17:43;;;;;;;39.80;21.27;;;-2.00;99.90;;;;;;4214717;28;20024;-71
2020/12/06 01:19:43;;;;;;;45.40;24.00;;;-1.90;99.90;;;;;;4215114;28;20034;-71
2020/12/06 01:21:51;;;;;;;42.72;22.80;;;-1.90;99.90;;;;;;4214757;28;20066;-73
2020/12/06 01:23:51;;;;;;;43.75;24.05;;;-1.90;99.90;;;;;;4196890;28;20029;-73
2020/12/06 01:25:52;;;;;;;47.83;24.17;;;-1.90;99.90;;;;;;4196370;28;20131;-73
2020/12/06 01:27:52;;;;;;;45.97;24.27;;;-1.90;99.90;;;;;;4213075;28;20445;-73
2020/12/06 01:29:53;;;;;;;42.58;22.30;;;-1.90;99.90;;;;;;4214665;28;20032;-73
2020/12/06 01:31:54;;;;;;;48.15;22.05;;;-1.90;99.90;;;;;;4214508;28;20104;-74
2020/12/06 01:33:54;;;;;;;48.22;24.35;;;-1.90;99.90;;;;;;4214697;28;20050;-74
2020/12/06 01:35:55;;;;;;;45.47;23.42;;;-1.90;99.90;;;;;;4183311;28;20024;-73
2020/12/06 01:37:56;;;;;;;43.20;22.55;;;-2.00;99.90;;;;;;4203262;28;20368;-73
2020/12/06 01:39:56;;;;;;;47.92;23.73;;;-2.00;99.90;;;;;;4201766;28;20031;-73
2020/12/06 01:41:57;;;;;;;42.80;21.30;;;-2.00;99.90;;;;;;4214217;28;20036;-73
2020/12/06 01:43:59;;;;;;;44.35;22.02;;;-2.00;99.90;;;;;;4214417;28;20020;-73
2020/12/06 01:45:59;;;;;;;45.25;22.90;;;-2.00;99.90;;;;;;4214218;28;20028;-73
2020/12/06 01:48:01;;;;;;;40.88;21.67;;;-2.00;99.90;;;;;;4214191;28;20107;-73
2020/12/06 01:50:02;;;;;;;40.90;21.25;;;-2.00;99.90;;;;;;4214089;28;20024;-73
2020/12/06 01:52:05;;;;;;;38.65;20.33;;;-2.00;99.90;;;;;;4190493;28;20029;-73
2020/12/06 01:54:06;;;;;;;34.67;19.60;;;-2.00;99.90;;;;;;4196334;28;20028;-73
2020/12/06 01:56:07;;;;;;;44.67;20.92;;;-2.00;99.90;;;;;;4208906;28;20378;-73
2020/12/06 01:58:09;;;;;;;40.00;22.52;;;-2.00;99.90;;;;;;4210083;28;20507;-73
2020/12/06 02:00:09;;;;;;;42.83;20.95;;;-2.00;99.90;;;;;;4201406;28;20357;-73
2020/12/06 02:02:10;;;;;;;44.97;21.75;;;-2.00;99.90;;;;;;4212622;28;20043;-73
2020/12/06 02:04:11;;;;;;;41.50;20.95;;;-2.00;99.90;;;;;;4196116;28;20391;-74
2020/12/06 02:06:11;;;;;;;45.35;22.83;;;-2.00;99.90;;;;;;4213759;28;20426;-73
2020/12/06 02:08:12;;;;;;;48.13;21.23;;;-2.00;99.90;;;;;;4195950;28;20160;-73
2020/12/06 02:10:13;;;;;;;37.92;20.48;;;-2.00;99.90;;;;;;4213914;28;20555;-73
2020/12/06 02:12:14;;;;;;;44.58;22.10;;;-2.00;99.90;;;;;;4213786;28;20032;-73
2020/12/06 02:14:15;;;;;;;43.63;22.23;;;-2.00;99.90;;;;;;4213877;28;20132;-73
2020/12/06 02:16:16;;;;;;;38.08;22.02;;;-2.00;99.90;;;;;;4195924;28;20431;-73
2020/12/06 02:18:17;;;;;;;44.03;21.13;;;-2.00;99.90;;;;;;4195690;28;20029;-73
2020/12/06 02:20:21;;;;;;;49.28;22.50;;;-2.00;99.90;;;;;;4202359;28;20037;-73
2020/12/06 02:22:21;;;;;;;49.17;23.02;;;-2.00;99.90;;;;;;4192407;28;20041;-73
2020/12/06 02:24:22;;;;;;;43.30;22.85;;;-2.00;99.90;;;;;;4213218;28;20490;-73
2020/12/06 02:26:23;;;;;;;50.85;22.23;;;-2.00;99.90;;;;;;4213567;28;20036;-73
2020/12/06 02:28:23;;;;;;;49.88;23.92;;;-2.00;99.90;;;;;;4204673;28;20090;-73
2020/12/06 02:30:24;;;;;;;46.55;24.33;;;-1.90;99.90;;;;;;4187342;28;20044;-74
2020/12/06 02:32:24;;;;;;;52.70;23.42;;;-1.90;99.90;;;;;;4212147;28;20082;-73
2020/12/06 02:34:25;;;;;;;50.78;23.67;;;-1.90;99.90;;;;;;4179360;28;20025;-73
2020/12/06 02:36:25;;;;;;;48.70;22.70;;;-1.90;99.90;;;;;;4198415;28;20048;-73
2020/12/06 02:38:26;;;;;;;46.25;24.00;;;-1.80;99.90;;;;;;4197594;28;20051;-73
2020/12/06 02:40:27;;;;;;;54.92;24.95;;;-1.80;99.90;;;;;;4203679;28;20024;-73
2020/12/06 02:42:27;;;;;;;44.08;23.35;;;-1.70;99.90;;;;;;4182854;28;20144;-73
2020/12/06 02:44:28;;;;;;;54.85;23.70;;;-1.60;99.90;;;;;;4190524;28;20104;-73
2020/12/06 02:46:29;;;;;;;44.92;24.63;;;-1.60;99.90;;;;;;4193737;28;20048;-73
2020/12/06 02:48:29;;;;;;;50.17;24.65;;;-1.60;99.90;;;;;;4212075;28;20032;-73
2020/12/06 02:50:30;;;;;;;50.20;24.20;;;-1.60;99.90;;;;;;4211656;28;20024;-73
2020/12/06 02:52:31;;;;;;;56.78;25.35;;;-1.60;99.90;;;;;;4211949;28;20031;-73
2020/12/06 02:54:33;;;;;;;52.95;24.75;;;-1.60;99.90;;;;;;4211786;28;20039;-73
2020/12/06 02:56:33;;;;;;;55.00;26.40;;;-1.50;99.90;;;;;;4193528;28;20033;-73
2020/12/06 02:58:34;;;;;;;51.90;25.05;;;-1.50;99.90;;;;;;4209015;28;20116;-73
2020/12/06 03:00:35;;;;;;;58.05;25.98;;;-1.40;99.90;;;;;;4199103;28;20429;-73
2020/12/06 03:02:35;;;;;;;55.03;26.00;;;-1.30;99.90;;;;;;4213323;28;20479;-73
2020/12/06 03:04:36;;;;;;;50.50;24.23;;;-1.30;99.90;;;;;;4212875;28;20387;-74
2020/12/06 03:06:36;;;;;;;48.33;24.45;;;-1.30;99.90;;;;;;4185312;28;20502;-73
2020/12/06 03:08:38;;;;;;;53.45;24.50;;;-1.30;99.90;;;;;;4208777;28;20271;-73
2020/12/06 03:10:38;;;;;;;67.53;25.35;;;-1.30;99.90;;;;;;4213134;28;20109;-73
2020/12/06 03:12:39;;;;;;;56.15;26.13;;;-1.20;99.90;;;;;;4213258;28;20027;-73
2020/12/06 03:14:40;;;;;;;60.45;24.60;;;-1.20;99.90;;;;;;4213187;28;20040;-73
2020/12/06 03:16:41;;;;;;;58.50;26.73;;;-1.20;99.90;;;;;;4213198;28;20027;-73
2020/12/06 03:18:41;;;;;;;52.05;23.80;;;-1.20;99.90;;;;;;4195000;28;20487;-74
2020/12/06 03:20:42;;;;;;;56.38;24.95;;;-1.20;99.90;;;;;;4195148;28;20029;-73
2020/12/06 03:22:42;;;;;;;53.35;25.05;;;-1.20;99.90;;;;;;4198644;28;20499;-73
2020/12/06 03:24:43;;;;;;;52.42;24.60;;;-1.30;99.90;;;;;;4212818;28;20032;-73
2020/12/06 03:26:44;;;;;;;53.95;24.73;;;-1.30;99.90;;;;;;4213022;28;20040;-73
2020/12/06 03:28:44;;;;;;;57.95;25.95;;;-1.30;99.90;;;;;;4202610;28;20133;-73
2020/12/06 03:30:45;;;;;;;51.72;25.30;;;-1.30;99.90;;;;;;4212436;28;20475;-73
2020/12/06 03:32:46;;;;;;;56.72;24.70;;;-1.40;99.90;;;;;;4212487;28;20016;-73
2020/12/06 03:34:46;;;;;;;55.08;25.67;;;-1.40;99.90;;;;;;4191232;28;20480;-73
2020/12/06 03:36:47;;;;;;;60.67;23.73;;;-1.40;99.90;;;;;;4201838;28;20107;-73
2020/12/06 03:38:47;;;;;;;55.60;26.35;;;-1.40;99.90;;;;;;4186904;28;20031;-73
2020/12/06 03:40:48;;;;;;;58.15;25.38;;;-1.40;99.90;;;;;;4212737;28;20073;-74
2020/12/06 03:42:52;;;;;;;55.80;26.95;;;-1.40;99.90;;;;;;4180901;28;20032;-73
2020/12/06 03:44:53;;;;;;;55.85;24.08;;;-1.40;99.90;;;;;;4199197;28;20389;-73
2020/12/06 03:46:53;;;;;;;53.30;26.83;;;-1.40;99.90;;;;;;4212680;28;20035;-73
2020/12/06 03:48:54;;;;;;;60.00;26.00;;;-1.30;99.90;;;;;;4212854;28;20109;-73
2020/12/06 03:50:55;;;;;;;53.95;26.45;;;-1.20;99.90;;;;;;4194950;28;20487;-73
2020/12/06 03:52:55;;;;;;;55.80;25.90;;;-1.20;99.90;;;;;;4209541;28;20032;-74
2020/12/06 03:54:56;;;;;;;55.47;25.30;;;-1.20;99.90;;;;;;4212558;28;20028;-74
2020/12/06 03:56:56;;;;;;;57.65;24.33;;;-1.20;99.90;;;;;;4212573;28;20048;-73
2020/12/06 03:58:57;;;;;;;59.67;26.17;;;-1.20;99.90;;;;;;4199417;28;20379;-73
2020/12/06 04:00:58;;;;;;;64.55;25.65;;;-1.20;99.90;;;;;;4207749;28;20078;-73
2020/12/06 04:02:58;;;;;;;61.58;26.58;;;-1.10;99.90;;;;;;4212721;28;20050;-73
2020/12/06 04:04:59;;;;;;;57.78;24.30;;;-1.10;99.90;;;;;;4212362;28;20069;-73
2020/12/06 04:06:59;;;;;;;61.05;26.65;;;-1.10;99.90;;;;;;4212304;28;20028;-73
2020/12/06 04:09:00;;;;;;;54.25;26.58;;;-1.10;99.90;;;;;;4210213;28;20024;-74
2020/12/06 04:11:00;;;;;;;63.40;28.05;;;-1.10;99.90;;;;;;4211027;28;20024;-73
2020/12/06 04:13:01;;;;;;;60.40;26.77;;;-1.10;99.90;;;;;;4192628;28;20438;-74
2020/12/06 04:15:02;;;;;;;59.72;27.73;;;-1.10;99.90;;;;;;4210844;28;20523;-73
2020/12/06 04:17:02;;;;;;;58.35;28.15;;;-1.00;99.90;;;;;;4209722;28;20162;-73
2020/12/06 04:19:03;;;;;;;66.22;29.30;;;-1.00;99.90;;;;;;4210808;28;20024;-73
2020/12/06 04:21:04;;;;;;;65.93;29.45;;;-1.00;99.90;;;;;;4209610;28;20032;-73
2020/12/06 04:23:04;;;;;;;66.40;27.40;;;-1.00;99.90;;;;;;4211057;28;20583;-73
2020/12/06 04:25:05;;;;;;;62.70;29.15;;;-1.00;99.90;;;;;;4211664;28;20028;-73
2020/12/06 04:27:06;;;;;;;73.95;28.63;;;-1.00;99.90;;;;;;4211684;28;20043;-73
2020/12/06 04:29:06;;;;;;;78.10;28.70;;;-1.10;99.90;;;;;;4191319;28;20048;-73
2020/12/06 04:31:07;;;;;;;70.68;28.98;;;-1.00;99.90;;;;;;4210699;28;20059;-73
2020/12/06 04:33:07;;;;;;;62.63;29.48;;;-1.00;99.90;;;;;;4211311;28;20431;-73
2020/12/06 04:35:08;;;;;;;62.58;26.00;;;-1.00;99.90;;;;;;4211393;28;20428;-73
2020/12/06 04:37:08;;;;;;;77.55;29.38;;;-1.00;99.90;;;;;;4207633;28;20523;-73
2020/12/06 04:39:09;;;;;;;72.20;30.02;;;-1.00;99.90;;;;;;4206039;28;20440;-73
2020/12/06 04:41:10;;;;;;;64.28;29.33;;;-1.00;99.90;;;;;;4210916;28;20044;-73
2020/12/06 04:43:14;;;;;;;66.45;29.63;;;-1.00;99.90;;;;;;4211100;28;20024;-73
2020/12/06 04:45:14;;;;;;;68.40;28.67;;;-1.00;99.90;;;;;;4215287;28;20040;-73
2020/12/06 04:47:22;;;;;;;68.88;27.45;;;-0.90;99.90;;;;;;4215449;28;20055;-73
2020/12/06 04:49:42;;;;;;;63.83;29.35;;;-0.90;99.90;;;;;;4215420;28;20394;-73
2020/12/06 04:51:44;;;;;;;63.28;27.70;;;-0.90;99.90;;;;;;4215384;28;20028;-73
2020/12/06 04:53:53;;;;;;;75.90;28.63;;;-0.90;99.90;;;;;;4215146;28;20024;-73
2020/12/06 04:55:55;;;;;;;72.35;29.27;;;-0.80;99.90;;;;;;4214949;28;20056;-73
2020/12/06 04:57:57;;;;;;;61.38;28.77;;;-0.80;99.90;;;;;;4210474;28;20109;-73
2020/12/06 05:00:10;;;;;;;65.50;28.83;;;-0.80;99.90;;;;;;4213296;28;20030;-73
2020/12/06 05:02:12;;;;;;;58.08;26.90;;;-0.80;99.90;;;;;;4196805;28;20571;-73
2020/12/06 05:04:15;;;;;;;65.95;28.77;;;-0.80;99.90;;;;;;4215170;28;20024;-74
2020/12/06 05:06:18;;;;;;;65.55;28.15;;;-0.80;99.90;;;;;;4196797;28;20043;-73
2020/12/06 05:08:24;;;;;;;69.47;28.67;;;-0.80;99.90;;;;;;4214843;28;20029;-75
2020/12/06 05:10:25;;;;;;;59.25;26.60;;;-0.70;99.90;;;;;;4214826;28;20024;-73
2020/12/06 05:12:26;;;;;;;63.03;29.35;;;-0.70;99.90;;;;;;4214830;28;20055;-73
2020/12/06 05:14:26;;;;;;;64.47;29.45;;;-0.60;99.90;;;;;;4214274;28;20028;-73
2020/12/06 05:16:29;;;;;;;66.47;28.02;;;-0.60;99.90;;;;;;4211535;28;20027;-74
2020/12/06 05:18:31;;;;;;;70.03;29.75;;;-0.50;99.90;;;;;;4194086;28;20108;-73
2020/12/06 05:20:32;;;;;;;69.75;29.40;;;-0.50;99.90;;;;;;4196350;28;20055;-74
2020/12/06 05:22:33;;;;;;;58.78;27.25;;;-0.50;99.90;;;;;;4201689;28;20021;-73
2020/12/06 05:24:35;;;;;;;67.63;26.77;;;-0.50;99.90;;;;;;4196438;28;20029;-73
2020/12/06 05:26:35;;;;;;;61.50;27.77;;;-0.50;99.90;;;;;;4200023;28;20029;-73
2020/12/06 05:28:37;;;;;;;60.13;28.98;;;-0.50;99.90;;;;;;4211621;28;20032;-73
2020/12/06 05:30:41;;;;;;;73.10;28.77;;;-0.50;99.90;;;;;;4211218;28;20035;-73
2020/12/06 05:32:42;;;;;;;75.40;29.67;;;-0.60;99.90;;;;;;4205971;28;20044;-73
2020/12/06 05:34:44;;;;;;;56.97;27.33;;;-0.60;99.90;;;;;;4197618;28;20037;-73
2020/12/06 05:36:44;;;;;;;63.28;27.25;;;-0.60;99.90;;;;;;4201953;28;20467;-75
2020/12/06 05:38:45;;;;;;;72.32;30.15;;;-0.60;99.90;;;;;;4213223;28;20028;-73
2020/12/06 05:40:45;;;;;;;68.05;30.10;;;-0.60;99.90;;;;;;4213884;28;20035;-73
2020/12/06 05:42:46;;;;;;;59.25;28.83;;;-0.70;99.90;;;;;;4196097;28;20032;-73
2020/12/06 05:44:55;;;;;;;74.55;29.15;;;-0.70;99.90;;;;;;4196041;28;20086;-73
2020/12/06 05:46:59;;;;;;;65.18;30.40;;;-0.70;99.90;;;;;;4213945;28;20028;-73
2020/12/06 05:48:59;;;;;;;;;;;-0.70;99.90;;;;;;4214034;28;20031;-74
2020/12/06 05:51:00;;;;;;;65.18;27.17;;;-0.70;99.90;;;;;;4202531;28;19912;-74
2020/12/06 05:53:01;;;;;;;69.80;28.90;;;-0.70;99.90;;;;;;4197103;28;20383;-74
2020/12/06 05:55:03;;;;;;;60.38;27.13;;;-0.70;99.90;;;;;;4179146;28;20025;-73
2020/12/06 05:57:03;;;;;;;59.25;26.88;;;-0.70;99.90;;;;;;4196930;28;20024;-73
2020/12/06 05:59:05;;;;;;;54.35;27.67;;;-0.70;99.90;;;;;;4211305;28;20052;-73
2020/12/06 06:01:06;;;;;;;65.25;27.63;;;-0.70;99.90;;;;;;4195379;28;20025;-73
2020/12/06 06:03:07;;;;;;;64.85;28.08;;;-0.70;99.90;;;;;;4195883;28;20028;-73
2020/12/06 06:05:08;;;;;;;61.47;29.88;;;-0.70;99.90;;;;;;4195807;28;20021;-74
2020/12/06 06:07:18;;;;;;;66.47;30.00;;;-0.60;99.90;;;;;;4193449;28;20021;-73
2020/12/06 06:09:20;;;;;;;65.07;27.55;;;-0.70;99.90;;;;;;4203508;28;20682;-73
2020/12/06 06:11:23;;;;;;;69.53;29.23;;;-0.60;99.90;;;;;;4203318;28;20040;-73
2020/12/06 06:13:29;;;;;;;69.78;29.95;;;-0.60;99.90;;;;;;4197215;28;20085;-73
2020/12/06 06:15:30;;;;;;;59.75;29.92;;;-0.60;99.90;;;;;;4195443;28;20415;-74
2020/12/06 06:17:31;;;;;;;63.38;29.65;;;-0.60;99.90;;;;;;4195805;28;20480;-74
2020/12/06 06:19:32;;;;;;;63.55;28.60;;;-0.60;99.90;;;;;;4213861;28;20394;-73
2020/12/06 06:21:36;;;;;;;63.78;27.80;;;-0.60;99.90;;;;;;4203446;28;20024;-74
2020/12/06 06:23:38;;;;;;;56.60;26.73;;;-0.70;99.90;;;;;;4191549;28;20055;-73
2020/12/06 06:25:39;;;;;;;61.50;27.40;;;-0.70;99.90;;;;;;4195473;28;20118;-73
2020/12/06 06:27:40;;;;;;;63.45;27.63;;;-0.70;99.90;;;;;;4209053;28;20028;-73
2020/12/06 06:29:42;;;;;;;72.63;30.30;;;-0.70;99.90;;;;;;4204099;28;20365;-73
2020/12/06 06:31:47;;;;;;;64.10;30.48;;;-0.60;99.90;;;;;;4203463;28;20584;-73
2020/12/06 06:33:49;;;;;;;65.57;31.75;;;-0.70;99.90;;;;;;4191978;28;20491;-74
2020/12/06 06:35:51;;;;;;;68.50;31.02;;;-0.70;99.90;;;;;;4197473;28;20056;-73
2020/12/06 06:37:52;;;;;;;61.65;28.90;;;-0.70;99.90;;;;;;4201865;28;20108;-73
2020/12/06 06:39:58;;;;;;;67.78;31.25;;;-0.70;99.90;;;;;;4195460;28;20078;-73
2020/12/06 06:42:09;;;;;;;70.63;30.65;;;-0.70;99.90;;;;;;4206800;28;20055;-73
2020/12/06 06:44:11;;;;;;;65.68;31.00;;;-0.60;99.90;;;;;;4198532;28;20396;-73
2020/12/06 06:46:17;;;;;;;64.63;32.13;;;-0.60;99.90;;;;;;4194962;28;20033;-73
2020/12/06 06:48:17;;;;;;;60.75;30.58;;;-0.60;99.90;;;;;;4195376;28;20055;-73
2020/12/06 06:50:18;;;;;;;66.15;32.28;;;-0.50;99.90;;;;;;4204294;28;20024;-74
2020/12/06 06:52:20;;;;;;;63.83;30.25;;;-0.50;99.90;;;;;;4196771;28;20056;-74
2020/12/06 06:54:29;;;;;;;68.45;29.50;;;-0.40;99.90;;;;;;4196222;28;20055;-73
2020/12/06 06:56:30;;;;;;;65.32;31.27;;;-0.40;99.90;;;;;;4196364;28;20107;-73
2020/12/06 06:58:32;;;;;;;75.55;32.13;;;-0.40;99.90;;;;;;4205915;28;20028;-74
2020/12/06 07:00:33;;;;;;;70.40;30.30;;;-0.40;99.90;;;;;;4194143;28;20025;-73
2020/12/06 07:02:36;;;;;;;64.13;31.63;;;-0.40;99.90;;;;;;4211811;28;20545;-74
2020/12/06 07:04:46;;;;;;;75.90;32.05;;;-0.40;99.90;;;;;;4202117;28;20033;-74
2020/12/06 07:06:49;;;;;;;67.57;32.55;;;-0.50;99.90;;;;;;4191769;28;20032;-73
2020/12/06 07:08:50;;;;;;;64.03;30.55;;;-0.50;99.90;;;;;;4210170;28;20736;-73
2020/12/06 07:10:53;;;;;;;62.47;31.90;;;-0.50;99.90;;;;;;4198508;28;20093;-73
2020/12/06 07:12:55;;;;;;;65.82;33.28;;;-0.50;99.90;;;;;;4192107;28;20029;-73
2020/12/06 07:14:57;;;;;;;65.68;31.50;;;-0.50;99.90;;;;;;4212064;28;20028;-74
2020/12/06 07:16:58;;;;;;;69.68;34.17;;;-0.50;99.90;;;;;;4193978;28;20039;-73
2020/12/06 07:18:59;;;;;;;68.93;32.30;;;-0.50;99.90;;;;;;4211876;28;20028;-74
2020/12/06 07:20:59;;;;;;;69.97;31.00;;;-0.50;99.90;;;;;;4210976;28;20410;-74
2020/12/06 07:23:00;;;;;;;69.32;33.35;;;-0.50;99.90;;;;;;4212085;28;20364;-73
2020/12/06 07:25:03;;;;;;;69.18;32.17;;;-0.40;99.90;;;;;;4211795;28;20502;-74
2020/12/06 07:27:03;;;;;;;68.75;32.40;;;-0.40;99.90;;;;;;4211775;28;20034;-73
2020/12/06 07:29:04;;;;;;;65.75;32.80;;;-0.30;99.90;;;;;;4207282;28;20487;-74
2020/12/06 07:31:05;;;;;;;65.03;32.88;;;-0.30;99.90;;;;;;4207093;28;20048;-73
2020/12/06 07:33:05;;;;;;;67.05;33.42;;;-0.30;99.90;;;;;;4210603;28;20031;-74
2020/12/06 07:35:08;;;;;;;69.13;34.42;;;-0.30;99.90;;;;;;4211859;28;20024;-73
2020/12/06 07:37:09;;;;;;;71.15;35.95;;;-0.30;99.90;;;;;;4210291;28;20033;-73
2020/12/06 07:39:17;;;;;;;75.95;36.33;;;-0.30;99.90;;;;;;4193919;28;20395;-73
2020/12/06 07:41:17;;;;;;;74.55;37.35;;;-0.30;99.90;;;;;;4209271;28;20093;-73
2020/12/06 07:43:18;;;;;;;76.70;33.85;;;-0.30;99.90;;;;;;4193852;28;20070;-74
2020/12/06 07:45:24;;;;;;;78.82;36.72;;;-0.20;99.90;;;;;;4208954;28;20032;-73
2020/12/06 07:47:26;;;;;;;76.72;35.65;;;-0.20;99.90;;;;;;4211004;28;20110;-73
2020/12/06 07:49:27;;;;;;;77.93;37.05;;;-0.20;99.90;;;;;;4211649;28;20107;-73
2020/12/06 07:51:28;;;;;;;80.93;35.85;;;-0.10;99.90;;;;;;4210565;28;20170;-73
2020/12/06 07:53:28;;;;;;;70.72;35.13;;;-0.10;99.90;;;;;;4210495;28;20028;-73
2020/12/06 07:55:29;;;;;;;70.63;35.17;;;0.00;99.90;;;;;;4211713;28;20534;-73
2020/12/06 07:57:38;;;;;;;74.78;35.88;;;0.00;99.90;;;;;;4192742;28;20100;-73
2020/12/06 07:59:40;;;;;;;75.07;34.78;;;0.00;99.90;;;;;;4208931;28;20507;-74
2020/12/06 08:01:42;;;;;;;77.22;36.90;;;0.00;99.90;;;;;;4211290;28;20483;-73
2020/12/06 08:03:43;;;;;;;81.78;38.40;;;0.00;99.90;;;;;;4211388;28;20481;-73
2020/12/06 08:05:44;;;;;;;83.32;37.60;;;0.00;99.90;;;;;;4210548;28;20040;-74
2020/12/06 08:07:47;;;;;;;73.38;35.70;;;0.00;99.90;;;;;;4210831;28;20036;-73
2020/12/06 08:09:48;;;;;;;86.28;38.13;;;0.10;99.90;;;;;;4211552;28;20024;-74
2020/12/06 08:11:51;;;;;;;84.93;39.42;;;0.10;99.90;;;;;;4210739;28;20420;-73
2020/12/06 08:13:53;;;;;;;95.85;37.80;;;0.20;99.90;;;;;;4208744;28;20464;-73
2020/12/06 08:16:03;;;;;;;87.25;37.53;;;0.20;99.90;;;;;;4210321;28;20036;-73
2020/12/06 08:18:15;;;;;;;86.90;41.42;;;0.20;99.90;;;;;;4210635;28;20060;-73
2020/12/06 08:20:18;;;;;;;83.75;39.42;;;0.30;99.90;;;;;;4213666;28;20118;-73
2020/12/06 08:22:18;;;;;;;85.33;38.73;;;0.30;99.90;;;;;;4214457;28;20483;-73
2020/12/06 08:24:23;;;;;;;78.57;38.75;;;0.30;99.90;;;;;;4210510;28;20275;-73
2020/12/06 08:26:35;;;;;;;95.78;39.42;;;0.30;99.90;;;;;;4212813;28;20181;-73
2020/12/06 08:28:36;;;;;;;84.55;39.17;;;0.30;99.90;;;;;;4203021;28;20109;-74
2020/12/06 08:30:36;;;;;;;86.70;39.05;;;0.40;99.90;;;;;;4208449;28;20029;-73
2020/12/06 08:32:37;;;;;;;80.32;39.08;;;0.40;99.90;;;;;;4198465;28;20430;-73
2020/12/06 08:34:38;;;;;;;88.28;40.90;;;0.40;99.90;;;;;;4201035;28;20396;-73
2020/12/06 08:36:40;;;;;;;87.05;40.08;;;0.40;99.90;;;;;;4207446;28;20032;-74
2020/12/06 08:38:41;;;;;;;83.72;39.25;;;0.50;99.90;;;;;;4202746;28;20040;-74
2020/12/06 08:41:08;;;;;;;86.38;39.95;;;0.50;99.90;;;;;;4205022;28;20036;-74
2020/12/06 08:43:08;;;;;;;90.68;40.38;;;0.60;99.90;;;;;;4167750;28;20412;-73
2020/12/06 08:45:09;;;;;;;88.68;43.65;;;0.60;99.90;;;;;;4179408;28;20033;-73
2020/12/06 08:47:10;;;;;;;90.57;43.97;;;0.70;99.90;;;;;;4179030;28;20029;-74
2020/12/06 08:49:18;;;;;;;91.32;42.83;;;0.70;99.90;;;;;;4179138;28;20396;-73
2020/12/06 08:51:26;;;;;;;85.80;41.63;;;0.70;99.90;;;;;;4175202;28;20025;-73
2020/12/06 08:53:27;;;;;;;94.28;43.78;;;0.70;99.90;;;;;;4165112;28;20080;-74
2020/12/06 08:55:30;;;;;;;96.20;44.05;;;0.80;99.90;;;;;;4165225;28;20488;-74
2020/12/06 08:57:30;;;;;;;91.45;44.50;;;0.80;99.90;;;;;;4165437;28;20656;-74
2020/12/06 08:59:34;;;;;;;88.63;42.97;;;0.80;99.90;;;;;;4165182;28;20108;-73
2020/12/06 09:01:50;;;;;;;93.90;45.10;;;0.90;99.90;;;;;;4161917;28;20030;-74
2020/12/06 09:03:50;;;;;;;103.30;46.72;;;1.00;99.90;;;;;;4148972;28;20454;-73
2020/12/06 09:05:51;;;;;;;105.35;46.47;;;1.00;99.90;;;;;;4154638;28;20034;-73
2020/12/06 09:07:51;;;;;;;92.03;44.75;;;1.00;99.90;;;;;;4165208;28;20389;-73
2020/12/06 09:09:52;;;;;;;93.60;43.35;;;1.10;99.90;;;;;;4165211;28;20030;-73
2020/12/06 09:11:54;;;;;;;104.28;48.38;;;1.20;99.90;;;;;;4163918;28;20350;-74
2020/12/06 09:13:55;;;;;;;92.20;48.13;;;1.20;99.90;;;;;;4159143;28;20029;-73
2020/12/06 09:15:55;;;;;;;103.15;47.15;;;1.20;99.90;;;;;;4159499;28;20502;-73
2020/12/06 09:17:56;;;;;;;109.43;46.67;;;1.30;99.90;;;;;;4169976;28;20115;-73
2020/12/06 09:19:56;;;;;;;103.97;47.90;;;1.40;99.90;;;;;;4164832;28;20489;-73
2020/12/06 09:21:58;;;;;;;98.90;47.20;;;1.40;99.90;;;;;;4157936;28;20473;-73
2020/12/06 09:23:58;;;;;;;99.85;44.40;;;1.50;99.90;;;;;;4156300;28;20060;-74
2020/12/06 09:26:00;;;;;;;97.55;45.42;;;1.50;99.90;;;;;;4155365;28;20361;-73
2020/12/06 09:28:01;;;;;;;102.22;48.28;;;1.50;99.90;;;;;;4155059;28;20041;-75
2020/12/06 09:30:02;;;;;;;100.82;51.42;;;1.50;99.90;;;;;;4156927;28;20022;-74
2020/12/06 09:32:03;;;;;;;111.40;51.15;;;1.50;99.90;;;;;;4157431;28;20021;-73
2020/12/06 09:34:03;;;;;;;116.80;53.47;;;1.50;99.90;;;;;;4178272;28;20091;-74
2020/12/06 09:36:04;;;;;;;105.88;49.55;;;1.50;99.90;;;;;;4157143;28;20052;-74
2020/12/06 09:38:05;;;;;;;109.57;50.88;;;1.40;99.90;;;;;;4163974;28;20505;-73
2020/12/06 09:40:06;;;;;;;95.93;46.67;;;1.50;99.90;;;;;;4171162;28;20033;-74
2020/12/06 09:42:06;;;;;;;107.50;49.50;;;1.50;99.90;;;;;;4183800;28;20041;-75
2020/12/06 09:44:09;;;;;;;99.45;45.45;;;1.60;99.90;;;;;;4169924;28;20388;-74
2020/12/06 09:46:11;;;;;;;111.18;49.20;;;1.70;99.90;;;;;;4188733;28;20029;-74
2020/12/06 09:48:12;;;;;;;110.38;49.35;;;1.80;99.90;;;;;;4187141;28;20036;-74
2020/12/06 09:50:13;;;;;;;109.63;48.35;;;2.00;99.90;;;;;;4181318;28;20029;-74
2020/12/06 09:52:14;;;;;;;111.38;49.72;;;2.10;99.90;;;;;;4181156;28;20017;-74
2020/12/06 09:54:14;;;;;;;99.80;46.63;;;2.20;99.90;;;;;;4180999;28;20435;-73
2020/12/06 09:56:15;;;;;;;104.80;47.83;;;2.20;99.90;;;;;;4194580;28;20039;-74
2020/12/06 09:58:16;;;;;;;105.90;48.13;;;2.20;99.90;;;;;;4196175;28;20035;-74
2020/12/06 10:00:17;;;;;;;107.68;49.53;;;2.20;99.90;;;;;;4197604;28;20059;-74
2020/12/06 10:02:18;;;;;;;105.78;49.33;;;2.20;99.90;;;;;;4197820;28;20021;-73
2020/12/06 10:04:19;;;;;;;100.80;46.85;;;2.20;99.90;;;;;;4197809;28;20039;-73
2020/12/06 10:06:23;;;;;;;102.63;48.97;;;2.30;99.90;;;;;;4196217;28;20032;-74
2020/12/06 10:08:24;;;;;;;95.97;46.78;;;2.30;99.90;;;;;;4197509;28;20042;-74
2020/12/06 10:10:25;;;;;;;97.50;43.50;;;2.40;99.90;;;;;;4196980;28;20504;-74
2020/12/06 10:12:25;;;;;;;99.00;45.75;;;2.40;99.90;;;;;;4195367;28;20028;-74
2020/12/06 10:14:26;;;;;;;97.53;46.17;;;2.50;99.90;;;;;;4197464;28;20025;-74
2020/12/06 10:16:26;;;;;;;92.80;43.47;;;2.50;99.90;;;;;;4196098;28;20103;-73
2020/12/06 10:18:27;;;;;;;93.68;44.90;;;2.60;99.90;;;;;;4190312;28;20060;-73